Time;durP1;ratioP1;P1;durP2;ratioP2;P2;SDS_P1;SDS_P2;PMS_P1;PMS_P2;Temp;Humidity;BMP_temperature;BMP_pressure;BME280_temperature;BME280_humidity;BME280_pressure;Samples;Min_cycle;Max_cycle;Signal;HPM_P1;HPM_P2
2021/11/27 00:00:34;;;;;;;2.40;2.20;;;3.50;99.90;;;;;;5054563;28;20052;-65
2021/11/27 00:03:00;;;;;;;2.90;2.60;;;3.70;99.90;;;;;;5054797;28;20025;-65
2021/11/27 00:05:27;;;;;;;3.25;2.60;;;3.40;99.90;;;;;;5054622;28;20025;-66
2021/11/27 00:07:54;;;;;;;5.10;3.33;;;3.80;99.90;;;;;;5055211;28;20036;-64
2021/11/27 00:10:23;;;;;;;5.15;3.17;;;2.90;99.90;;;;;;5055114;28;20017;-65
2021/11/27 00:12:49;;;;;;;6.80;2.50;;;3.10;99.90;;;;;;5054534;28;20025;-66
2021/11/27 00:15:16;;;;;;;9.40;3.30;;;2.50;99.90;;;;;;5053639;28;20029;-65
2021/11/27 00:17:42;;;;;;;3.80;3.08;;;3.60;99.90;;;;;;5054434;28;20139;-65
2021/11/27 00:20:12;;;;;;;4.22;3.42;;;2.50;99.90;;;;;;5055033;28;20059;-64
2021/11/27 00:22:39;;;;;;;3.90;3.50;;;3.00;99.90;;;;;;5055021;28;20450;-65
2021/11/27 00:25:06;;;;;;;5.95;3.97;;;3.20;99.90;;;;;;5053808;28;20406;-65
2021/11/27 00:27:33;;;;;;;5.38;4.30;;;2.80;99.90;;;;;;5054545;28;20190;-64
2021/11/27 00:30:00;;;;;;;6.22;4.10;;;3.30;99.90;;;;;;5054138;28;20035;-65
2021/11/27 00:32:26;;;;;;;5.25;3.72;;;3.20;99.90;;;;;;5036385;28;20029;-64
2021/11/27 00:34:51;;;;;;;6.10;4.57;;;3.10;99.90;;;;;;5053521;28;20426;-64
2021/11/27 00:37:17;;;;;;;5.80;4.38;;;3.00;99.90;;;;;;5054557;28;20029;-64
2021/11/27 00:39:43;;;;;;;6.50;4.20;;;;;;;;;;5036448;28;20031;-66
2021/11/27 00:42:09;;;;;;;9.60;5.57;;;3.10;99.90;;;;;;5054230;28;20035;-65
2021/11/27 00:44:35;;;;;;;8.27;5.68;;;2.90;99.90;;;;;;5053230;28;20041;-64
2021/11/27 00:47:00;;;;;;;7.68;5.43;;;3.10;99.90;;;;;;5054050;28;20035;-65
2021/11/27 00:49:26;;;;;;;9.02;5.60;;;2.90;99.90;;;;;;5054263;28;20540;-64
2021/11/27 00:51:52;;;;;;;7.68;5.35;;;2.80;99.90;;;;;;5054178;28;20096;-65
2021/11/27 00:54:21;;;;;;;7.18;5.32;;;2.60;99.90;;;;;;5053496;28;20024;-66
2021/11/27 00:56:47;;;;;;;7.20;5.13;;;2.60;99.90;;;;;;5054242;28;20029;-65
2021/11/27 00:59:13;;;;;;;7.93;5.30;;;2.80;99.90;;;;;;5053909;28;20025;-65
2021/11/27 01:01:39;;;;;;;8.93;5.45;;;2.80;99.90;;;;;;5054468;28;20475;-64
2021/11/27 01:04:05;;;;;;;7.90;5.75;;;3.20;99.90;;;;;;5053689;28;20089;-65
2021/11/27 01:06:31;;;;;;;8.98;6.15;;;3.10;99.90;;;;;;5053141;28;20025;-65
2021/11/27 01:09:00;;;;;;;6.82;5.25;;;3.30;99.90;;;;;;5053656;28;20081;-64
2021/11/27 01:11:33;;;;;;;11.60;6.10;;;2.80;99.90;;;;;;5053505;28;20398;-64
2021/11/27 01:14:08;;;;;;;8.75;5.80;;;2.60;99.90;;;;;;5053703;28;20582;-65
2021/11/27 01:16:38;;;;;;;9.20;6.70;;;2.90;99.90;;;;;;5053089;28;20029;-65
2021/11/27 01:19:06;;;;;;;9.27;5.25;;;2.90;99.90;;;;;;5053551;28;20116;-65
2021/11/27 01:21:36;;;;;;;7.72;5.78;;;3.10;99.90;;;;;;5053435;28;20686;-65
2021/11/27 01:24:05;;;;;;;7.72;5.18;;;3.30;99.90;;;;;;5053243;28;20025;-65
2021/11/27 01:26:33;;;;;;;9.27;5.88;;;2.90;99.90;;;;;;5052391;28;20120;-65
2021/11/27 01:28:58;;;;;;;6.93;5.53;;;3.00;99.90;;;;;;5052818;28;20025;-65
2021/11/27 01:31:24;;;;;;;7.13;4.93;;;2.70;99.90;;;;;;5053369;28;20104;-65
2021/11/27 01:33:50;;;;;;;7.47;5.22;;;2.60;99.90;;;;;;5053532;28;20108;-64
2021/11/27 01:36:16;;;;;;;7.05;5.38;;;2.90;99.90;;;;;;5052014;28;20028;-66
2021/11/27 01:38:42;;;;;;;8.20;5.50;;;2.90;99.90;;;;;;5053195;28;20090;-66
2021/11/27 01:41:09;;;;;;;9.70;5.70;;;2.60;99.90;;;;;;5052868;28;20541;-66
2021/11/27 01:43:36;;;;;;;8.63;5.57;;;2.70;99.90;;;;;;5052890;28;20047;-65
2021/11/27 01:46:03;;;;;;;7.57;5.55;;;2.80;99.90;;;;;;5051875;28;20108;-66
2021/11/27 01:48:29;;;;;;;7.45;5.68;;;;;;;;;;5052935;28;20028;-66
2021/11/27 01:51:04;;;;;;;8.05;5.90;;;3.10;99.90;;;;;;5053044;28;20032;-65
2021/11/27 01:53:32;;;;;;;7.70;5.25;;;2.70;99.90;;;;;;5052569;28;20490;-66
2021/11/27 01:56:00;;;;;;;7.85;5.78;;;3.20;99.90;;;;;;5051365;28;20123;-66
2021/11/27 01:58:27;;;;;;;10.02;5.90;;;3.60;99.90;;;;;;5052698;28;20028;-66
2021/11/27 02:00:57;;;;;;;8.20;5.80;;;3.40;99.90;;;;;;5052493;28;20033;-66
2021/11/27 02:03:23;;;;;;;10.10;5.85;;;2.90;99.90;;;;;;5052704;28;20033;-66
2021/11/27 02:05:49;;;;;;;8.48;5.85;;;3.50;99.90;;;;;;5051577;28;20033;-66
2021/11/27 02:08:16;;;;;;;7.40;5.20;;;2.90;99.90;;;;;;5052347;28;20025;-66
2021/11/27 02:10:43;;;;;;;8.27;5.82;;;3.10;99.90;;;;;;5052743;28;20025;-65
2021/11/27 02:13:09;;;;;;;9.60;5.78;;;3.20;99.90;;;;;;5052374;28;20135;-64
2021/11/27 02:15:35;;;;;;;6.95;5.43;;;3.00;99.90;;;;;;5051270;28;20124;-66
2021/11/27 02:18:01;;;;;;;7.30;5.20;;;3.50;99.90;;;;;;5052527;28;20033;-66
2021/11/27 02:20:26;;;;;;;7.90;5.93;;;3.40;99.90;;;;;;5052402;28;20044;-66
2021/11/27 02:22:53;;;;;;;6.50;4.97;;;3.10;99.90;;;;;;5053009;28;20048;-65
2021/11/27 02:25:21;;;;;;;7.30;4.80;;;2.90;99.90;;;;;;5051859;28;20082;-65
2021/11/27 02:27:51;;;;;;;7.68;5.03;;;3.20;99.90;;;;;;5052702;28;20029;-66
2021/11/27 02:30:20;;;;;;;7.72;5.43;;;3.60;99.90;;;;;;5052149;28;20018;-66
2021/11/27 02:32:47;;;;;;;8.57;5.57;;;3.70;99.90;;;;;;5052833;28;20108;-64
2021/11/27 02:35:13;;;;;;;7.60;5.50;;;3.60;99.90;;;;;;5051639;28;20076;-66
2021/11/27 02:37:38;;;;;;;10.85;6.15;;;3.60;99.90;;;;;;5052675;28;20487;-66
2021/11/27 02:40:06;;;;;;;7.57;5.35;;;5.40;99.90;;;;;;5052581;28;20105;-67
2021/11/27 02:42:32;;;;;;;9.25;5.53;;;3.20;99.90;;;;;;5052782;28;20095;-66
2021/11/27 02:44:58;;;;;;;8.65;5.40;;;3.00;99.90;;;;;;5051116;28;20098;-67
2021/11/27 02:47:24;;;;;;;7.10;5.15;;;3.60;99.90;;;;;;5055012;28;20052;-65
2021/11/27 02:49:50;;;;;;;6.88;4.75;;;3.30;99.90;;;;;;5052851;28;20025;-66
2021/11/27 02:52:16;;;;;;;7.85;4.88;;;3.20;99.90;;;;;;5052328;28;20025;-65
2021/11/27 02:54:42;;;;;;;6.45;4.63;;;3.40;99.90;;;;;;5051033;28;20475;-65
2021/11/27 02:57:08;;;;;;;8.13;4.95;;;3.10;99.90;;;;;;5051961;28;20036;-65
2021/11/27 02:59:34;;;;;;;7.82;4.85;;;3.10;99.90;;;;;;5050998;28;20017;-65
2021/11/27 03:02:02;;;;;;;9.48;4.72;;;2.80;99.90;;;;;;5051639;28;20024;-65
2021/11/27 03:04:32;;;;;;;6.53;4.78;;;3.90;99.90;;;;;;5050663;28;20029;-66
2021/11/27 03:06:58;;;;;;;6.13;4.07;;;3.60;99.90;;;;;;5050742;28;20068;-66
2021/11/27 03:09:24;;;;;;;7.25;4.25;;;3.60;99.90;;;;;;5050891;28;20045;-65
2021/11/27 03:11:53;;;;;;;7.28;3.58;;;3.60;99.90;;;;;;5033282;28;20118;-65
2021/11/27 03:14:22;;;;;;;5.57;4.10;;;4.30;99.90;;;;;;5050896;28;20033;-65
2021/11/27 03:16:49;;;;;;;5.20;4.05;;;2.70;99.90;;;;;;5051214;28;20028;-65
2021/11/27 03:19:15;;;;;;;4.88;3.63;;;3.80;99.90;;;;;;5051599;28;20029;-66
2021/11/27 03:21:41;;;;;;;5.45;3.78;;;3.70;99.90;;;;;;5051485;28;20486;-65
2021/11/27 03:24:07;;;;;;;5.90;3.88;;;3.70;99.90;;;;;;5051169;28;20071;-66
2021/11/27 03:26:33;;;;;;;6.15;3.60;;;3.50;99.90;;;;;;5049768;28;20108;-66
2021/11/27 03:28:59;;;;;;;4.63;3.50;;;3.80;99.90;;;;;;5051197;28;20112;-67
2021/11/27 03:31:24;;;;;;;4.93;3.22;;;3.90;99.90;;;;;;5051303;28;20061;-65
2021/11/27 03:33:50;;;;;;;3.25;2.90;;;2.70;99.90;;;;;;5051361;28;20130;-65
2021/11/27 03:36:16;;;;;;;3.83;2.72;;;3.40;99.90;;;;;;5050463;28;20475;-67
2021/11/27 03:38:42;;;;;;;2.92;2.63;;;3.60;99.90;;;;;;5051434;28;20151;-66
2021/11/27 03:41:10;;;;;;;4.15;2.40;;;2.80;99.90;;;;;;5051586;28;20493;-66
2021/11/27 03:43:41;;;;;;;3.20;2.72;;;3.70;99.90;;;;;;5051302;28;20021;-64
2021/11/27 03:46:08;;;;;;;2.55;2.35;;;3.60;99.90;;;;;;5050417;28;20024;-65
2021/11/27 03:48:38;;;;;;;2.38;2.00;;;3.30;99.90;;;;;;5051114;28;20615;-64
2021/11/27 03:51:07;;;;;;;2.20;1.98;;;3.70;99.90;;;;;;5051378;28;20025;-65
2021/11/27 03:53:35;;;;;;;2.47;1.85;;;3.50;99.90;;;;;;5049896;28;20379;-64
2021/11/27 03:56:03;;;;;;;2.50;1.83;;;3.60;99.90;;;;;;5050083;28;20114;-65
2021/11/27 03:58:29;;;;;;;1.70;1.60;;;3.40;99.90;;;;;;5050492;28;20033;-65
2021/11/27 04:00:56;;;;;;;3.30;1.60;;;3.70;99.90;;;;;;5051139;28;20044;-65
2021/11/27 04:03:23;;;;;;;3.20;1.65;;;3.30;99.90;;;;;;5051042;28;20053;-66
2021/11/27 04:05:53;;;;;;;1.92;1.77;;;3.80;99.90;;;;;;5050677;28;20053;-67
2021/11/27 04:08:19;;;;;;;2.03;1.55;;;;;;;;;;5050571;28;20515;-66
2021/11/27 04:10:45;;;;;;;1.70;1.60;;;3.70;99.90;;;;;;5051089;28;20036;-65
2021/11/27 04:13:11;;;;;;;2.00;1.70;;;4.00;99.90;;;;;;5050648;28;20020;-65
2021/11/27 04:15:37;;;;;;;2.15;1.52;;;4.00;99.90;;;;;;5050229;28;20036;-64
2021/11/27 04:18:03;;;;;;;2.38;1.60;;;3.80;99.90;;;;;;5051666;28;20423;-64
2021/11/27 04:20:29;;;;;;;1.95;1.65;;;3.40;99.90;;;;;;5054430;28;20021;-65
2021/11/27 04:22:55;;;;;;;2.17;1.65;;;4.20;99.90;;;;;;5054591;28;20061;-65
2021/11/27 04:25:21;;;;;;;2.38;2.00;;;3.00;99.90;;;;;;5053584;28;20052;-66
2021/11/27 04:27:47;;;;;;;1.70;1.55;;;3.80;99.90;;;;;;5036465;28;20104;-66
2021/11/27 04:30:15;;;;;;;2.97;2.22;;;4.20;99.90;;;;;;5034325;28;20108;-66
2021/11/27 04:32:42;;;;;;;2.70;1.70;;;3.40;99.90;;;;;;5034417;28;20223;-63
2021/11/27 04:35:08;;;;;;;2.38;1.90;;;3.80;99.90;;;;;;5033705;28;20021;-64
2021/11/27 04:37:34;;;;;;;3.10;2.10;;;3.40;99.90;;;;;;5034270;28;20025;-66
2021/11/27 04:40:00;;;;;;;2.17;1.98;;;3.80;99.90;;;;;;5046599;28;20028;-65
2021/11/27 04:42:26;;;;;;;2.72;2.03;;;3.70;99.90;;;;;;5053614;28;20051;-67
2021/11/27 04:44:52;;;;;;;2.80;2.40;;;;;;;;;;5053346;28;20071;-66
2021/11/27 04:47:17;;;;;;;3.58;1.98;;;3.60;99.90;;;;;;5053982;28;20032;-66
2021/11/27 04:49:43;;;;;;;2.10;1.83;;;3.70;99.90;;;;;;5054047;28;20021;-66
2021/11/27 04:52:09;;;;;;;4.35;2.40;;;4.10;99.90;;;;;;5054373;28;20028;-66
2021/11/27 04:54:36;;;;;;;2.65;2.30;;;4.40;99.90;;;;;;5053030;28;20029;-67
2021/11/27 04:57:02;;;;;;;2.70;2.05;;;3.40;99.90;;;;;;5053608;28;20029;-64
2021/11/27 04:59:28;;;;;;;2.50;2.25;;;;;;;;;;5053347;28;20537;-66
2021/11/27 05:01:54;;;;;;;2.28;1.92;;;3.70;99.90;;;;;;5053922;28;20029;-66
2021/11/27 05:04:20;;;;;;;3.33;2.50;;;3.40;99.90;;;;;;5053182;28;20497;-64
2021/11/27 05:06:46;;;;;;;3.88;2.17;;;3.80;99.90;;;;;;5053805;28;20475;-65
2021/11/27 05:09:12;;;;;;;3.72;2.10;;;3.90;99.90;;;;;;5053601;28;20103;-66
2021/11/27 05:11:38;;;;;;;2.55;2.35;;;3.40;99.90;;;;;;5053367;28;20055;-66
2021/11/27 05:14:04;;;;;;;2.92;1.90;;;4.00;99.90;;;;;;5053629;28;20025;-66
2021/11/27 05:16:30;;;;;;;2.28;2.08;;;3.60;99.90;;;;;;5052948;28;20028;-66
2021/11/27 05:18:57;;;;;;;3.92;1.92;;;3.50;99.90;;;;;;5053686;28;20107;-66
2021/11/27 05:21:23;;;;;;;2.38;2.03;;;4.20;99.90;;;;;;5053475;28;20056;-65
2021/11/27 05:23:49;;;;;;;3.60;2.20;;;4.50;99.90;;;;;;5053541;28;20056;-66
2021/11/27 05:26:15;;;;;;;2.35;2.05;;;;;;;;;;5052703;28;20049;-65
2021/11/27 05:28:41;;;;;;;2.28;2.08;;;;;;;;;;5052748;28;20079;-66
2021/11/27 05:31:09;;;;;;;1.73;1.63;;;2.90;99.90;;;;;;5052413;28;20536;-66
2021/11/27 05:36:10;;;;;;;3.65;2.13;;;3.40;99.90;;;;;;5052549;28;20064;-65
2021/11/27 05:38:35;;;;;;;3.65;2.25;;;3.80;99.90;;;;;;5053228;28;20413;-66
2021/11/27 05:41:01;;;;;;;2.78;2.25;;;3.60;99.90;;;;;;5035070;28;20033;-65
2021/11/27 05:43:27;;;;;;;13.32;2.28;;;3.50;99.90;;;;;;5052892;28;20033;-65
2021/11/27 05:45:53;;;;;;;2.20;2.00;;;3.90;99.90;;;;;;5052221;28;20033;-65
2021/11/27 05:48:18;;;;;;;2.10;1.85;;;3.60;99.90;;;;;;5079934;22;20048;-64
2021/11/27 05:50:44;;;;;;;1.77;1.67;;;3.10;99.90;;;;;;5064545;28;20059;-65
2021/11/27 05:53:10;;;;;;;2.78;1.90;;;3.60;99.90;;;;;;5072440;28;20028;-64
2021/11/27 05:55:35;;;;;;;2.88;1.50;;;4.10;99.90;;;;;;5071924;28;20048;-64
2021/11/27 05:58:01;;;;;;;1.92;1.40;;;3.30;99.90;;;;;;5071606;28;20032;-64
2021/11/27 06:00:28;;;;;;;2.55;1.80;;;4.20;99.90;;;;;;5072632;28;20025;-64
2021/11/27 06:02:53;;;;;;;1.80;1.70;;;4.00;99.90;;;;;;5072546;28;20029;-63
2021/11/27 06:05:19;;;;;;;4.32;1.88;;;3.10;99.90;;;;;;5071601;28;20805;-64
2021/11/27 06:07:45;;;;;;;2.45;1.95;;;3.60;99.90;;;;;;5072137;28;20029;-63
2021/11/27 06:10:11;;;;;;;3.20;1.63;;;3.60;99.90;;;;;;5072234;28;20117;-63
2021/11/27 06:12:37;;;;;;;1.65;1.55;;;3.90;99.90;;;;;;5072302;28;20094;-63
2021/11/27 06:15:03;;;;;;;2.05;1.70;;;3.40;99.90;;;;;;5071800;28;20036;-63
2021/11/27 06:17:29;;;;;;;1.95;1.75;;;3.60;99.90;;;;;;5072089;28;20123;-64
2021/11/27 06:19:55;;;;;;;3.15;1.85;;;3.70;99.90;;;;;;5072094;28;20506;-64
2021/11/27 06:22:22;;;;;;;2.28;1.80;;;;;;;;;;5071822;28;20029;-64
2021/11/27 06:24:49;;;;;;;2.42;1.67;;;4.00;99.90;;;;;;5071116;28;20082;-64
2021/11/27 06:27:14;;;;;;;2.08;1.88;;;3.90;99.90;;;;;;5070673;28;20383;-64
2021/11/27 06:29:40;;;;;;;2.58;1.60;;;4.20;99.90;;;;;;5072006;28;20024;-64
2021/11/27 06:32:09;;;;;;;1.77;1.63;;;3.90;99.90;;;;;;5072221;28;20432;-64
2021/11/27 06:34:35;;;;;;;2.35;1.75;;;3.60;99.90;;;;;;5069982;28;20140;-63
2021/11/27 06:37:01;;;;;;;2.60;1.85;;;3.40;99.90;;;;;;5071558;28;20485;-63
2021/11/27 06:39:27;;;;;;;1.55;1.30;;;3.50;99.90;;;;;;5071669;28;20064;-64
2021/11/27 06:41:53;;;;;;;1.80;1.20;;;4.10;99.90;;;;;;5072219;28;20029;-63
2021/11/27 06:44:18;;;;;;;1.42;1.33;;;3.80;99.90;;;;;;5071301;28;20029;-61
2021/11/27 06:46:44;;;;;;;1.48;1.35;;;3.40;99.90;;;;;;5070584;28;20029;-60
2021/11/27 06:49:10;;;;;;;1.55;1.42;;;3.40;99.90;;;;;;5065085;28;20391;-66
2021/11/27 06:51:36;;;;;;;3.90;1.50;;;3.30;99.90;;;;;;5055320;28;20086;-67
2021/11/27 06:54:01;;;;;;;1.67;1.52;;;3.40;99.90;;;;;;5063051;28;20031;-66
2021/11/27 06:56:27;;;;;;;2.03;1.75;;;3.30;99.90;;;;;;5064769;28;20518;-67
2021/11/27 06:58:54;;;;;;;1.83;1.50;;;3.00;99.90;;;;;;5055584;28;20032;-67
2021/11/27 07:01:20;;;;;;;2.95;1.30;;;3.20;99.90;;;;;;5072485;28;20032;-67
2021/11/27 07:03:45;;;;;;;3.08;1.45;;;3.50;99.90;;;;;;5060417;28;20397;-67
2021/11/27 07:06:11;;;;;;;2.40;1.42;;;3.20;99.90;;;;;;5050290;28;20087;-67
2021/11/27 07:08:36;;;;;;;1.67;1.48;;;4.00;99.90;;;;;;5054777;28;20021;-73
2021/11/27 07:11:02;;;;;;;1.70;1.45;;;3.30;99.90;;;;;;5071946;28;20048;-67
2021/11/27 07:13:28;;;;;;;1.30;1.20;;;3.30;99.90;;;;;;5054108;28;20021;-67
2021/11/27 07:15:54;;;;;;;1.67;1.58;;;3.90;99.90;;;;;;5059317;28;20024;-67
2021/11/27 07:18:19;;;;;;;2.03;1.65;;;3.50;99.90;;;;;;5051337;28;20029;-67
2021/11/27 07:20:45;;;;;;;1.25;1.15;;;3.80;99.90;;;;;;5051200;28;20025;-71
2021/11/27 07:23:11;;;;;;;1.60;1.50;;;3.90;99.90;;;;;;5051214;28;20074;-66
2021/11/27 07:25:37;;;;;;;1.33;1.23;;;3.60;99.90;;;;;;5050558;28;20021;-68
2021/11/27 07:28:05;;;;;;;1.38;1.25;;;3.60;99.90;;;;;;5051228;28;20029;-63
2021/11/27 07:30:31;;;;;;;2.08;1.52;;;3.60;99.90;;;;;;5051439;28;20095;-68
2021/11/27 07:32:57;;;;;;;2.00;1.48;;;4.00;99.90;;;;;;5051180;28;20025;-72
2021/11/27 07:35:23;;;;;;;1.48;1.33;;;3.70;99.90;;;;;;5050176;28;20029;-66
2021/11/27 07:37:48;;;;;;;1.60;1.50;;;3.80;99.90;;;;;;5051191;28;20029;-69
2021/11/27 07:40:14;;;;;;;1.42;1.33;;;3.90;99.90;;;;;;5051243;28;20025;-69
2021/11/27 07:42:40;;;;;;;3.10;1.35;;;3.80;99.90;;;;;;5063447;28;20040;-68
2021/11/27 07:45:06;;;;;;;1.48;1.38;;;4.20;99.90;;;;;;5069454;28;20013;-68
2021/11/27 07:47:35;;;;;;;1.55;1.45;;;3.90;99.90;;;;;;5070729;28;20032;-68
2021/11/27 07:50:03;;;;;;;3.47;3.00;;;4.20;99.90;;;;;;5072679;28;20020;-68
2021/11/27 07:52:28;;;;;;;2.08;1.80;;;4.90;99.90;;;;;;5073261;28;20023;-68
2021/11/27 07:54:54;;;;;;;1.13;1.02;;;5.50;99.90;;;;;;5074226;28;20020;-69
2021/11/27 07:57:21;;;;;;;1.20;1.10;;;6.20;99.90;;;;;;5075175;28;20440;-68
2021/11/27 07:59:46;;;;;;;1.73;1.33;;;6.60;99.90;;;;;;5056626;28;20115;-69
2021/11/27 08:02:12;;;;;;;1.35;1.25;;;6.30;99.90;;;;;;5075115;28;20021;-69
2021/11/27 08:04:37;;;;;;;2.03;1.40;;;5.80;99.90;;;;;;5074120;28;20482;-68
2021/11/27 08:07:03;;;;;;;2.10;1.13;;;5.20;99.90;;;;;;5075348;28;20036;-70
2021/11/27 08:09:29;;;;;;;1.80;1.70;;;5.10;99.90;;;;;;5075137;28;20452;-75
2021/11/27 08:11:54;;;;;;;3.13;2.83;;;5.50;99.90;;;;;;5074801;28;20024;-75
2021/11/27 08:14:20;;;;;;;2.70;2.40;;;5.30;99.90;;;;;;5074098;28;20551;-67
2021/11/27 08:16:46;;;;;;;2.97;2.78;;;5.30;99.90;;;;;;5056398;28;20025;-69
2021/11/27 08:19:12;;;;;;;5.50;5.00;;;4.90;99.90;;;;;;5074075;28;20512;-69
2021/11/27 08:21:37;;;;;;;2.13;2.00;;;4.60;99.90;;;;;;5074445;28;20028;-68
2021/11/27 08:24:03;;;;;;;3.97;3.08;;;4.20;99.90;;;;;;5074583;28;20025;-67
2021/11/27 08:26:29;;;;;;;2.35;2.15;;;4.20;99.90;;;;;;5073887;28;20032;-70
2021/11/27 08:28:55;;;;;;;2.03;1.83;;;3.80;99.90;;;;;;5074416;28;20063;-69
2021/11/27 08:31:21;;;;;;;2.35;1.67;;;3.80;99.90;;;;;;5074462;28;20029;-70
2021/11/27 08:33:46;;;;;;;2.50;2.30;;;3.90;99.90;;;;;;5074612;28;20028;-70
2021/11/27 08:36:12;;;;;;;2.88;2.53;;;4.30;99.90;;;;;;5061777;28;20379;-69
2021/11/27 08:38:38;;;;;;;8.43;6.47;;;4.60;99.90;;;;;;5054183;28;20052;-70
2021/11/27 08:41:07;;;;;;;8.82;6.20;;;4.90;99.90;;;;;;5064026;28;20036;-70
2021/11/27 08:43:33;;;;;;;3.13;2.60;;;5.60;99.90;;;;;;5058895;28;20426;-70
2021/11/27 08:45:59;;;;;;;3.28;2.28;;;6.50;99.90;;;;;;5062584;28;20050;-70
2021/11/27 08:48:25;;;;;;;3.80;1.55;;;6.40;99.90;;;;;;5073772;28;20553;-70
2021/11/27 08:50:50;;;;;;;2.38;1.60;;;7.10;99.90;;;;;;5074218;28;20028;-70
2021/11/27 08:53:16;;;;;;;1.20;1.10;;;6.70;99.90;;;;;;5073880;28;20043;-70
2021/11/27 08:55:42;;;;;;;3.35;1.10;;;7.00;99.90;;;;;;5073203;28;20027;-70
2021/11/27 08:58:07;;;;;;;1.67;1.10;;;8.00;99.90;;;;;;5073634;28;20470;-69
2021/11/27 09:00:33;;;;;;;1.30;1.20;;;7.80;99.90;;;;;;5072505;28;20025;-71
2021/11/27 09:02:59;;;;;;;3.25;1.48;;;8.40;99.90;;;;;;5074071;28;20021;-70
2021/11/27 09:05:25;;;;;;;2.20;1.10;;;7.80;99.90;;;;;;5071550;28;20033;-69
2021/11/27 09:07:51;;;;;;;3.25;1.33;;;8.10;99.90;;;;;;5073445;28;20031;-69
2021/11/27 09:10:18;;;;;;;2.83;1.50;;;8.60;99.90;;;;;;5073633;28;20020;-69
2021/11/27 09:12:44;;;;;;;2.90;2.63;;;9.10;99.90;;;;;;5073631;28;20048;-70
2021/11/27 09:15:10;;;;;;;2.83;1.30;;;9.40;99.90;;;;;;5072852;28;20059;-70
2021/11/27 09:17:35;;;;;;;2.50;1.63;;;9.50;99.90;;;;;;5073532;28;20025;-69
2021/11/27 09:20:02;;;;;;;2.10;1.67;;;9.60;99.90;;;;;;5073116;28;20032;-68
2021/11/27 09:22:28;;;;;;;1.40;1.30;;;9.10;99.90;;;;;;5073850;28;20032;-69
2021/11/27 09:24:53;;;;;;;2.17;1.42;;;8.60;99.90;;;;;;5072767;28;20025;-68
2021/11/27 09:27:19;;;;;;;1.67;1.20;;;8.40;99.90;;;;;;5073572;28;20031;-68
2021/11/27 09:29:45;;;;;;;2.05;1.60;;;8.40;99.90;;;;;;5073400;28;20432;-68
2021/11/27 09:32:10;;;;;;;4.18;1.40;;;8.30;99.90;;;;;;5073394;28;20426;-68
2021/11/27 09:34:36;;;;;;;2.13;1.60;;;8.20;99.90;;;;;;5072446;28;20020;-68
2021/11/27 09:37:03;;;;;;;2.15;1.40;;;8.20;99.90;;;;;;5074011;28;20028;-68
2021/11/27 09:39:29;;;;;;;2.38;1.10;;;7.80;99.90;;;;;;5073189;28;20488;-68
2021/11/27 09:41:57;;;;;;;3.05;1.58;;;8.30;99.90;;;;;;5072968;28;20412;-68
2021/11/27 09:44:24;;;;;;;5.43;2.00;;;8.30;99.90;;;;;;5072304;28;20017;-68
2021/11/27 09:46:49;;;;;;;2.65;1.52;;;11.50;99.90;;;;;;5055324;28;20025;-68
2021/11/27 09:49:20;;;;;;;1.27;1.17;;;11.10;99.90;;;;;;5066819;28;20026;-69
2021/11/27 09:51:47;;;;;;;2.38;1.05;;;12.50;99.90;;;;;;5073018;28;20020;-69
2021/11/27 09:54:17;;;;;;;1.67;1.25;;;13.70;99.90;;;;;;5072953;28;20103;-68
2021/11/27 09:56:47;;;;;;;2.00;1.15;;;14.20;99.40;;;;;;5060620;28;20013;-69
2021/11/27 09:59:13;;;;;;;1.83;1.10;;;14.80;98.30;;;;;;5052545;28;20453;-69
2021/11/27 10:01:45;;;;;;;2.83;1.38;;;13.60;98.90;;;;;;5053030;28;20029;-68
2021/11/27 10:04:12;;;;;;;2.28;1.38;;;13.10;99.50;;;;;;5052701;28;20033;-68
2021/11/27 10:06:43;;;;;;;3.33;1.65;;;12.70;99.30;;;;;;5051777;28;20039;-70
2021/11/27 10:09:22;;;;;;;1.65;1.23;;;11.60;99.90;;;;;;5052518;28;20437;-69
2021/11/27 10:11:49;;;;;;;3.00;1.27;;;10.70;99.90;;;;;;5052935;28;20025;-69
2021/11/27 10:14:16;;;;;;;2.60;1.60;;;10.40;99.90;;;;;;5052050;28;20021;-76
2021/11/27 10:17:03;;;;;;;1.67;1.05;;;9.90;99.90;;;;;;5051514;28;20143;-69
2021/11/27 10:19:44;;;;;;;2.05;1.35;;;9.60;99.90;;;;;;5052762;28;20045;-68
2021/11/27 10:22:12;;;;;;;2.47;1.50;;;9.20;99.90;;;;;;5052762;28;20025;-74
2021/11/27 10:24:39;;;;;;;2.40;1.17;;;8.70;99.90;;;;;;5050391;28;20035;-74
2021/11/27 10:27:26;;;;;;;1.85;1.20;;;9.00;99.90;;;;;;5054050;28;20081;-75
2021/11/27 10:30:08;;;;;;;3.88;1.63;;;9.10;99.90;;;;;;5071992;28;20017;-74
2021/11/27 10:32:37;;;;;;;1.65;1.33;;;8.30;99.90;;;;;;5054274;28;20052;-74
2021/11/27 10:35:06;;;;;;;1.55;1.08;;;8.60;99.90;;;;;;5071007;28;20028;-74
2021/11/27 10:37:38;;;;;;;1.67;1.20;;;8.30;99.90;;;;;;5071114;28;20095;-75
2021/11/27 10:40:20;;;;;;;2.63;1.15;;;8.50;99.90;;;;;;5051210;28;20060;-69
2021/11/27 10:42:48;;;;;;;1.67;1.30;;;8.20;99.90;;;;;;5051712;28;20037;-68
2021/11/27 10:45:14;;;;;;;1.05;0.95;;;;;;;;;;5054603;28;20070;-69
2021/11/27 10:47:40;;;;;;;13.45;4.50;;;7.80;99.90;;;;;;5053770;28;20108;-69
2021/11/27 10:50:09;;;;;;;2.20;1.50;;;7.80;99.90;;;;;;5071773;28;20072;-68
2021/11/27 10:52:38;;;;;;;2.50;1.10;;;7.30;99.90;;;;;;5071925;28;20024;-69
2021/11/27 10:55:26;;;;;;;2.40;1.58;;;7.50;99.90;;;;;;5069073;28;20552;-69
2021/11/27 10:57:55;;;;;;;3.60;1.05;;;7.60;99.90;;;;;;5070702;28;20060;-69
2021/11/27 11:00:28;;;;;;;2.25;1.35;;;6.90;99.90;;;;;;5071156;28;20032;-68
2021/11/27 11:02:55;;;;;;;3.08;0.98;;;7.00;99.90;;;;;;5071985;28;20601;-68
2021/11/27 11:05:21;;;;;;;1.83;1.10;;;6.60;99.90;;;;;;5053614;28;20028;-69
2021/11/27 11:07:55;;;;;;;2.42;0.90;;;6.70;99.90;;;;;;5073535;28;20035;-68
2021/11/27 11:10:24;;;;;;;1.48;0.90;;;6.50;99.90;;;;;;5060852;28;20020;-68
2021/11/27 11:12:55;;;;;;;1.35;1.00;;;6.70;99.90;;;;;;5072925;28;20497;-68
2021/11/27 11:15:40;;;;;;;2.90;1.02;;;7.00;99.90;;;;;;5070577;28;20024;-68
2021/11/27 11:18:19;;;;;;;0.80;0.80;;;6.30;99.90;;;;;;5070974;28;20579;-69
2021/11/27 11:20:56;;;;;;;0.98;0.80;;;6.40;99.90;;;;;;5071832;28;20033;-69
2021/11/27 11:23:35;;;;;;;1.35;0.88;;;6.10;99.90;;;;;;5071593;28;20025;-68
2021/11/27 11:26:00;;;;;;;1.48;1.25;;;6.20;99.90;;;;;;5071796;28;20029;-68
2021/11/27 11:28:39;;;;;;;2.85;1.48;;;6.50;99.90;;;;;;5072839;28;20061;-67
2021/11/27 11:31:11;;;;;;;1.27;1.08;;;5.80;99.90;;;;;;5077372;28;20047;-68
2021/11/27 11:33:40;;;;;;;1.83;1.05;;;6.70;99.90;;;;;;5076784;28;20032;-68
2021/11/27 11:36:09;;;;;;;1.48;0.90;;;7.10;99.90;;;;;;5075215;28;20029;-67
2021/11/27 11:38:35;;;;;;;1.75;1.02;;;6.80;99.90;;;;;;5075403;28;20020;-67
2021/11/27 11:41:01;;;;;;;1.52;0.85;;;6.80;99.90;;;;;;5075392;28;20037;-67
2021/11/27 11:43:27;;;;;;;1.38;0.90;;;6.80;99.90;;;;;;5075533;28;20026;-68
2021/11/27 11:45:52;;;;;;;0.93;0.93;;;6.60;99.90;;;;;;5074686;28;20016;-69
2021/11/27 11:48:25;;;;;;;1.13;0.93;;;6.40;99.90;;;;;;5075017;28;20050;-70
2021/11/27 11:51:02;;;;;;;;;;;6.50;99.90;;;;;;5075985;28;20062;-71
2021/11/27 11:53:55;;;;;;;0.52;0.52;;;6.60;99.90;;;;;;5075157;28;19905;-75
2021/11/27 11:56:36;;;;;;;0.75;0.75;;;6.80;99.90;;;;;;5070384;28;20379;-73
2021/11/27 11:59:39;;;;;;;0.60;0.60;;;4.20;99.90;;;;;;5049212;28;20146;-74
2021/11/27 12:02:13;;;;;;;0.60;0.60;;;7.10;99.90;;;;;;4982900;28;20512;-74
2021/11/27 12:04:57;;;;;;;1.20;0.70;;;7.20;99.90;;;;;;5052007;28;20422;-74
2021/11/27 12:07:42;;;;;;;0.60;0.60;;;7.90;99.90;;;;;;5064059;28;20025;-74
2021/11/27 12:10:18;;;;;;;0.65;0.65;;;7.20;99.90;;;;;;5064148;28;20021;-75
2021/11/27 12:12:46;;;;;;;0.70;0.60;;;7.50;99.90;;;;;;5063946;28;20099;-75
2021/11/27 12:15:12;;;;;;;0.75;0.57;;;7.00;99.90;;;;;;5066231;28;20029;-74
2021/11/27 12:18:07;;;;;;;0.90;0.70;;;7.00;99.90;;;;;;5073985;28;20017;-74
2021/11/27 12:20:47;;;;;;;0.70;0.70;;;7.10;99.90;;;;;;5076155;28;20017;-75
2021/11/27 12:26:11;;;;;;;0.65;0.65;;;7.70;99.90;;;;;;5062633;28;20461;-74
2021/11/27 12:28:49;;;;;;;0.73;0.60;;;8.90;99.90;;;;;;5062698;28;20055;-75
2021/11/27 12:31:25;;;;;;;1.08;0.93;;;10.70;99.90;;;;;;5062051;28;20021;-75
2021/11/27 12:34:08;;;;;;;0.75;0.60;;;11.10;99.90;;;;;;5064066;28;20032;-75
2021/11/27 12:36:47;;;;;;;0.75;0.70;;;10.70;99.90;;;;;;5064514;28;20052;-74
2021/11/27 12:39:22;;;;;;;1.20;0.77;;;10.20;99.90;;;;;;5064296;28;20025;-75
2021/11/27 12:42:03;;;;;;;0.82;0.82;;;9.50;99.90;;;;;;5064471;28;20025;-73
2021/11/27 12:44:35;;;;;;;0.98;0.98;;;8.40;99.90;;;;;;5063664;28;20095;-72
2021/11/27 12:47:22;;;;;;;1.50;0.80;;;7.60;99.90;;;;;;5063561;28;20032;-73
2021/11/27 12:49:52;;;;;;;1.27;1.10;;;7.00;99.90;;;;;;5062789;28;20342;-72
2021/11/27 12:52:20;;;;;;;0.70;0.70;;;6.90;99.90;;;;;;5061981;28;20017;-74
2021/11/27 12:54:52;;;;;;;0.70;0.70;;;6.00;99.90;;;;;;5072892;28;20390;-70
2021/11/27 12:57:23;;;;;;;1.48;0.88;;;6.00;99.90;;;;;;5073577;28;20046;-69
2021/11/27 13:00:27;;;;;;;1.92;1.17;;;5.50;99.90;;;;;;5072591;28;20029;-69
2021/11/27 13:02:54;;;;;;;0.70;0.70;;;5.40;99.90;;;;;;4971584;28;20034;-70
2021/11/27 13:05:22;;;;;;;0.80;0.80;;;5.60;99.90;;;;;;5055689;28;20640;-70
2021/11/27 13:07:48;;;;;;;36.10;15.35;;;5.30;99.90;;;;;;5073479;28;20029;-70
2021/11/27 13:10:13;;;;;;;1.10;0.95;;;6.40;99.90;;;;;;5073692;28;20012;-70